Weather observations for the past three days for
Red Wing - Red Wing Regional Airport
Imperial (Metric)
Date Time (cdt) Wind (mph) Vis. (mi.) Weather Sky Cond. Temperature (ºF) Relative Humidity Wind Chill (°F) Heat Index (°F) Pressure Precipitation (in)
Air Dwpt 6 hour altimeter (in) sea level (mb) 1 hr 3 hr 6 hr
Max. Min.
05 22:55 N 5 10.00 Fair CLR 42.8 23 46% 41 29.89 0.0
05 22:35 N 7 10.00 Fair CLR 42.8 21.2 42% 39 29.89 0.0
05 22:15 NW 6 10.00 Fair CLR 44.6 21.2 39% 42 29.89 0.0
05 21:55 NW 7 10.00 Partly Cloudy SCT065 SCT080 44.6 21.2 39% 41 29.88 0.0
05 21:35 NW 7 10.00 Partly Cloudy SCT065 SCT080 44.6 21.2 39% 41 29.87 0.0
05 21:15 NW 3 10.00 Partly Cloudy SCT090 44.6 21.2 39% 29.86 0.0
05 20:55 NW 5 10.00 Overcast OVC090 46.4 19.4 34% 45 29.86 0.0
05 20:35 NW 3 10.00 Overcast OVC090 46.4 19.4 34% 29.85 0.0
05 20:15 NW 5 10.00 Overcast OVC090 48.2 19.4 32% 47 29.84 0.0
05 19:55 NW 6 10.00 Overcast SCT070 OVC080 48.2 19.4 32% 46 29.84 0.0
05 19:35 W 9 G 16 10.00 Overcast BKN070 OVC080 48.2 19.4 32% 45 29.84 0.0
05 19:15 NW 10 10.00 Overcast OVC080 48.2 19.4 32% 44 29.83 0.0
05 18:55 NW 10 10.00 Overcast SCT070 OVC080 48.2 19.4 32% 44 29.83 0.0
05 18:35 NW 8 10.00 Overcast SCT075 OVC080 50 19.4 30% 47 29.83 0.0
05 18:15 W 10 10.00 Overcast OVC075 50 19.4 30% 46 29.83 0.0
05 17:55 NW 9 G 16 10.00 Overcast SCT075 OVC085 50 19.4 30% 47 29.83 0.0
05 17:35 W 13 G 21 10.00 Overcast SCT065 OVC085 50 19.4 30% 46 29.83 0.0
05 17:15 W 7 G 12 10.00 Overcast SCT065 OVC085 51.8 19.4 28% 29.83 0.0
05 16:55 NW 13 G 17 10.00 Overcast SCT065 OVC085 51.8 19.4 28% 29.83 0.0
05 16:35 NW 14 G 18 10.00 Overcast SCT075 OVC085 51.8 19.4 28% 29.83 0.0
05 16:15 W 13 10.00 Mostly Cloudy SCT075 BKN085 51.8 19.4 28% 29.83 0.0
05 15:55 W 15 G 20 10.00 Mostly Cloudy SCT075 BKN080 51.8 19.4 28% 29.83 0.0
05 15:35 W 10 G 20 10.00 Overcast BKN075 OVC080 51.8 17.6 26% 29.83 0.0
05 15:15 NW 10 G 18 10.00 Mostly Cloudy SCT075 BKN085 51.8 17.6 26% 29.83 0.0
05 14:55 W 15 G 21 10.00 Mostly Cloudy BKN075 BKN090 51.8 17.6 26% 29.84 0.0
05 14:35 W 12 G 20 10.00 Mostly Cloudy SCT075 BKN080 51.8 17.6 26% 29.83 0.0
05 14:15 W 10 G 20 10.00 Mostly Cloudy SCT075 BKN080 51.8 17.6 26% 29.84 0.0
05 13:55 NW 12 G 17 10.00 Mostly Cloudy SCT070 BKN085 51.8 17.6 26% 29.84 0.0
05 13:35 W 14 10.00 Mostly Cloudy BKN070 BKN080 51.8 17.6 26% 29.84 0.0
05 13:15 W 13 G 17 10.00 Overcast OVC080 48.2 15.8 27% 43 29.84 0.0
05 12:55 NW 10 10.00 Mostly Cloudy BKN080 50 15.8 26% 46 29.84 0.0
05 12:35 NW 12 G 18 10.00 Overcast OVC080 48.2 14 25% 44 29.85 0.0
05 12:15 W 9 G 16 10.00 Overcast OVC080 50 15.8 26% 47 29.85 0.0
05 11:55 W 9 G 21 10.00 Mostly Cloudy BKN080 48.2 14 25% 45 29.85 0.0
05 11:35 W 13 G 18 10.00 Partly Cloudy SCT070 SCT085 50 12.2 22% 46 29.85 0.0
05 11:15 W 10 G 22 10.00 Partly Cloudy SCT070 SCT085 50 15.8 26% 46 29.84 0.0
05 10:55 W 15 G 23 10.00 Partly Cloudy SCT070 50 15.8 26% 45 29.84 0.0
05 10:35 W 15 G 23 10.00 Partly Cloudy SCT060 48.2 15.8 27% 43 29.84 0.0
05 10:15 NW 12 G 16 10.00 Partly Cloudy SCT060 48.2 17.6 29% 44 29.84 0.0
05 09:55 NW 8 10.00 Fair CLR 46.4 17.6 32% 43 29.84 0.0
05 09:35 NW 9 10.00 Fair CLR 46.4 15.8 29% 42 29.84 0.0
05 09:15 W 12 10.00 Fair CLR 46.4 17.6 32% 42 29.83 0.0
05 08:55 NW 10 G 16 10.00 Fair CLR 44.6 17.6 34% 40 29.83 0.0
05 08:35 W 10 10.00 Fair CLR 44.6 19.4 37% 40 29.82 0.0
05 08:15 NW 8 10.00 Fair CLR 44.6 19.4 37% 41 29.82 0.0
05 07:55 W 8 10.00 Fair CLR 42.8 21.2 42% 39 29.81 0.0
05 07:35 W 8 10.00 Fair CLR 42.8 21.2 42% 39 29.81 0.0
05 07:15 W 6 10.00 Fair CLR 41 23 49% 38 29.8 0.0
05 06:55 W 5 10.00 Fair CLR 39.2 24.8 56% 36 29.79 0.0
05 06:35 W 5 10.00 Fair CLR 39.2 24.8 56% 36 29.78 0.0
05 06:15 NW 5 10.00 Fair CLR 37.4 24.8 60% 34 29.76 0.0
05 05:55 NW 6 10.00 Fair CLR 39.2 23 52% 36 29.76 0.0
05 05:35 NW 6 10.00 Fair CLR 39.2 23 52% 36 29.76 0.0
05 05:15 NW 8 10.00 Fair CLR 39.2 23 52% 34 29.75 0.0
05 04:55 NW 6 10.00 Fair CLR 39.2 23 52% 36 29.75 0.0
05 04:35 NW 6 10.00 Fair CLR 41 23 49% 38 29.75 0.0
05 04:15 NW 8 10.00 Fair CLR 42.8 21.2 42% 39 29.74 0.0
05 03:55 NW 8 10.00 Fair CLR 41 23 49% 36 29.73 0.0
05 03:35 W 6 10.00 Fair CLR 41 23 49% 38 29.72 0.0
05 03:15 NW 6 10.00 Fair CLR 42.8 23 46% 40 29.71 0.0
05 02:55 W 7 10.00 Fair CLR 41 24.8 53% 37 29.71 0.0
05 02:35 W 7 10.00 Fair CLR 41 26.6 57% 37 29.7 0.0
05 02:15 W 6 10.00 Fair CLR 42.8 26.6 53% 40 29.71 0.0
05 01:55 W 6 10.00 Fair CLR 42.8 26.6 53% 40 29.71 0.0
05 01:35 W 6 10.00 Fair CLR 42.8 26.6 53% 40 29.71 0.0
05 01:15 W 5 10.00 Fair CLR 42.8 24.8 49% 41 29.71 0.0
05 00:55 W 7 10.00 Fair CLR 42.8 24.8 49% 39 29.71 0.0
05 00:35 W 7 10.00 Fair CLR 42.8 24.8 49% 39 29.71 0.0
05 00:15 W 3 10.00 Fair CLR 42.8 24.8 49% 29.71 0.0
04 23:55 W 5 10.00 Fair CLR 42.8 24.8 49% 41 29.7 0.0
04 23:35 W 3 10.00 Fair CLR 44.6 24.8 46% 29.7 0.0
04 23:15 W 7 10.00 Fair CLR 44.6 23 43% 41 29.7 0.0
04 22:55 W 5 10.00 Fair CLR 44.6 21.2 39% 43 29.7 0.0
04 22:35 NW 7 10.00 Fair CLR 46.4 19.4 34% 43 29.7 0.0
04 22:15 NW 7 10.00 Fair CLR 46.4 19.4 34% 43 29.7 0.0
04 21:35 NW 7 G 20 10.00 Partly Cloudy SCT070 48.2 21.2 34% 46 29.69 0.0
04 21:15 NW 13 G 25 10.00 Partly Cloudy SCT070 50 21.2 32% 46 29.68 0.0
04 20:55 NW 12 G 21 10.00 Partly Cloudy SCT070 51.8 21.2 30% 29.66 0.0
04 20:35 NW 15 G 22 10.00 Partly Cloudy SCT070 51.8 21.2 30% 29.65 0.0
04 20:15 NW 10 G 18 10.00 Partly Cloudy SCT070 51.8 23 32% 29.63 0.0
04 19:55 NW 13 G 22 10.00 Partly Cloudy SCT070 53.6 23 30% 29.62 0.0
04 19:35 W 9 G 20 10.00 Fair CLR 53.6 24.8 33% 29.62 0.0
04 19:15 NW 16 G 22 10.00 Fair CLR 53.6 24.8 33% 29.61 0.0
04 18:55 NW 16 G 25 10.00 Fair CLR 55.4 24.8 31% 29.6 0.0
04 18:35 NW 14 G 23 10.00 Fair CLR 57.2 24.8 29% 29.59 0.0
04 18:15 NW 15 G 26 10.00 Fair CLR 59 26.6 29% 29.58 0.0
04 17:55 NW 18 G 28 10.00 Fair CLR 59 26.6 29% 29.57 0.0
04 17:35 NW 16 G 28 10.00 Fair CLR 60.8 24.8 25% 29.56 0.0
04 17:15 NW 14 G 23 10.00 Fair CLR 60.8 26.6 27% 29.55 0.0
04 16:55 NW 12 G 25 10.00 Partly Cloudy SCT070 62.6 28.4 27% 29.53 0.0
04 16:35 W 21 G 25 10.00 Fair and Breezy CLR 62.6 26.6 25% 29.53 0.0
04 16:15 W 20 G 31 10.00 Fair CLR 62.6 24.8 24% 29.53 0.0
04 15:55 W 24 G 29 10.00 Fair and Breezy CLR 62.6 26.6 25% 29.52 0.0
04 15:35 W 18 G 29 10.00 Partly Cloudy SCT085 62.6 24.8 24% 29.52 0.0
04 15:15 W 20 G 25 10.00 Partly Cloudy SCT085 62.6 24.8 24% 29.51 0.0
04 14:55 W 14 G 24 10.00 Partly Cloudy SCT075 SCT085 62.6 24.8 24% 29.51 0.0
04 14:35 W 21 G 25 10.00 Partly Cloudy and Breezy SCT075 62.6 24.8 24% 29.51 0.0
04 14:15 W 23 G 29 10.00 Fair and Breezy CLR 66.2 24.8 21% 29.5 0.0
04 13:55 W 23 G 30 10.00 Fair and Breezy CLR 66.2 24.8 21% 29.49 0.0
04 13:35 NW 15 G 24 10.00 Fair CLR 66.2 28.4 24% 29.48 0.0
04 13:15 NW 18 G 24 10.00 Fair CLR 66.2 28.4 24% 29.48 0.0
04 12:55 W 14 G 25 10.00 Fair CLR 64.4 26.6 24% 29.47 0.0
04 12:35 W 13 G 24 10.00 Fair CLR 66.2 26.6 22% 29.47 0.0
04 12:15 W 15 G 23 10.00 Fair CLR 66.2 26.6 22% 29.47 0.0
04 11:55 NW 14 G 23 10.00 Fair CLR 66.2 26.6 22% 29.47 0.0
04 11:35 NW 14 G 20 10.00 Fair CLR 66.2 30.2 26% 29.47 0.0
04 11:15 NW 13 G 20 10.00 Fair CLR 64.4 28.4 26% 29.47 0.0
04 10:55 W 17 G 22 10.00 Fair CLR 62.6 26.6 25% 29.47 0.0
04 10:35 W 15 G 21 10.00 Partly Cloudy SCT110 62.6 28.4 27% 29.46 0.0
04 10:15 W 16 G 24 10.00 Fair CLR 64.4 30.2 28% 29.45 0.0
04 09:55 W 17 G 23 10.00 Fair CLR 64.4 33.8 32% 29.45 0.0
04 09:35 W 15 G 25 10.00 Fair CLR 64.4 33.8 32% 29.45 0.0
04 09:15 W 15 G 22 10.00 Fair CLR 64.4 35.6 34% 29.44 0.0
04 08:55 W 14 G 21 10.00 Fair CLR 64.4 33.8 32% 29.44 0.0
04 08:35 W 16 G 23 10.00 Fair CLR 62.6 33.8 34% 29.44 0.0
04 08:15 W 15 G 26 10.00 Fair CLR 62.6 33.8 34% 29.44 0.0
04 07:55 W 16 G 26 10.00 Fair CLR 62.6 33.8 34% 29.43 0.0
04 07:35 W 13 G 21 10.00 Fair CLR 62.6 33.8 34% 29.43 0.0
04 07:15 W 12 G 20 10.00 Partly Cloudy SCT110 59 33.8 39% 29.42 0.0
04 06:55 SW 8 10.00 Mostly Cloudy BKN110 57.2 32 39% 29.42 0.0
04 06:35 W 5 10.00 Partly Cloudy SCT110 57.2 32 39% 29.43 0.0
04 06:15 W 5 10.00 Fair CLR 55.4 32 41% 29.42 0.0
04 05:55 W 3 10.00 Fair CLR 55.4 32 41% 29.43 0.0
04 05:35 W 9 10.00 Fair CLR 55.4 32 41% 29.44 0.0
04 05:15 W 6 10.00 Fair CLR 55.4 32 41% 29.44 0.0
04 04:55 W 8 10.00 Fair CLR 55.4 30.2 38% 29.45 0.0
04 04:35 NW 3 10.00 Fair CLR 55.4 30.2 38% 29.47 0.0
04 04:15 W 5 10.00 Fair CLR 55.4 32 41% 29.47 0.0
04 03:55 W 7 10.00 Fair CLR 50 33.8 54% 48 29.49 0.0
04 03:35 Calm 10.00 Fair CLR 48.2 33.8 58% 29.49 0.0
04 03:15 N 3 10.00 Fair CLR 46.4 35.6 66% 29.5 0.0
04 02:55 N 3 10.00 Fair CLR 46.4 35.6 66% 29.51 0.0
04 02:35 Calm 10.00 Fair CLR 46.4 35.6 66% 29.52 0.0
04 02:15 NE 3 10.00 Fair CLR 46.4 35.6 66% 29.53 0.0
04 01:55 Calm 10.00 Fair CLR 44.6 33.8 66% 29.54 0.0
04 01:35 Calm 10.00 Fair CLR 44.6 33.8 66% 29.55 0.0
04 01:15 Calm 10.00 Fair CLR 46.4 33.8 62% 29.57 0.0
04 00:55 Calm 10.00 Fair CLR 44.6 33.8 66% 29.58 0.0
04 00:35 Calm 10.00 Fair CLR 46.4 33.8 62% 29.58 0.0
04 00:15 Calm 10.00 Fair CLR 44.6 35.6 71% 29.59 0.0
03 23:55 Calm 10.00 Fair CLR 46.4 33.8 62% 29.6 0.0
03 23:35 Calm 10.00 Fair CLR 46.4 33.8 62% 29.61 0.0
03 23:15 Calm 10.00 Fair CLR 46.4 33.8 62% 29.62 0.0
03 22:55 N 3 10.00 Fair CLR 48.2 33.8 58% 29.63 0.0
03 22:35 Calm 10.00 Fair CLR 48.2 33.8 58% 29.64 0.0
03 22:15 Calm 10.00 Fair CLR 50 33.8 54% 29.64 0.0
03 21:55 Calm 10.00 Fair CLR 50 33.8 54% 29.65 0.0
03 21:35 N 3 10.00 Fair CLR 51.8 32 47% 29.65 0.0
03 21:15 Calm 10.00 Fair CLR 53.6 30.2 41% 29.65 0.0
03 20:55 Calm 10.00 Fair CLR 55.4 30.2 38% 29.65 0.0
03 20:35 Calm 10.00 Fair CLR 60.8 26.6 27% 29.65 0.0
03 20:15 NW 3 10.00 Fair CLR 62.6 24.8 24% 29.65 0.0
03 19:55 W 3 10.00 Fair CLR 64.4 24.8 22% 29.65 0.0
03 19:15 W 8 10.00 Fair CLR 68 23 18% 29.65 0.0
03 18:55 W 9 10.00 Fair CLR 69.8 24.8 18% 29.65 0.0
03 18:35 W 12 G 17 10.00 Fair CLR 69.8 24.8 18% 29.65 0.0
03 18:15 W 8 10.00 Fair CLR 69.8 23 17% 29.65 0.0
03 17:55 NW 12 G 20 10.00 Fair CLR 69.8 21.2 16% 29.66 0.0
03 17:35 NW 8 10.00 Fair CLR 71.6 19.4 14% 29.66 0.0
03 17:15 W 15 G 23 10.00 Fair CLR 71.6 21.2 15% 29.66 0.0
03 16:55 W 13 G 20 10.00 Fair CLR 71.6 21.2 15% 29.66 0.0
03 16:35 NW 12 G 20 10.00 Fair CLR 71.6 21.2 15% 29.66 0.0
03 16:15 W 12 G 20 10.00 Fair CLR 71.6 26.6 19% 29.66 0.0
03 15:55 W 16 10.00 Fair CLR 71.6 28.4 20% 29.66 0.0
03 15:35 W 7 10.00 Fair CLR 71.6 30.2 22% 29.66 0.0
03 15:15 N 8 10.00 Fair CLR 71.6 28.4 20% 29.67 0.0
03 14:55 NW 7 G 21 10.00 Fair CLR 71.6 30.2 22% 29.68 0.0
03 14:35 NW 8 G 16 10.00 Fair CLR 71.6 33.8 25% 29.67 0.0
03 14:15 NW 12 G 17 10.00 Fair CLR 71.6 32 23% 29.68 0.0
03 13:55 NW 10 G 20 10.00 Fair CLR 71.6 32 23% 29.68 0.0
03 13:35 NW 9 10.00 Fair CLR 71.6 30.2 22% 29.68 0.0
03 13:15 NW 9 G 18 10.00 Fair CLR 69.8 30.2 23% 29.69 0.0
03 12:55 W 13 G 20 10.00 Fair CLR 69.8 30.2 23% 29.69 0.0
03 12:35 N 10 G 16 10.00 Fair CLR 69.8 33.8 27% 29.69 0.0
03 12:15 N 7 G 18 10.00 Fair CLR 69.8 33.8 27% 29.7 0.0
03 11:55 N 15 G 21 10.00 Fair CLR 68 33.8 28% 29.7 0.0
03 11:35 N 7 G 16 10.00 Fair CLR 66.2 33.8 30% 29.7 0.0
03 11:15 NE 5 10.00 Fair CLR 64.4 33.8 32% 29.7 0.0
03 10:55 NW 5 10.00 Fair CLR 64.4 33.8 32% 29.7 0.0
03 10:35 NW 8 10.00 Fair CLR 62.6 32 32% 29.7 0.0
03 10:15 NW 5 10.00 Fair CLR 62.6 32 32% 29.69 0.0
03 09:55 W 8 10.00 Fair CLR 62.6 32 32% 29.7 0.0
03 09:35 W 9 10.00 Fair CLR 62.6 32 32% 29.7 0.0
03 09:15 W 7 10.00 Fair CLR 60.8 32 34% 29.7 0.0
03 08:55 SW 8 10.00 Fair CLR 59 33.8 39% 29.69 0.0
03 08:35 SW 8 10.00 Fair CLR 57.2 32 39% 29.69 0.0
03 08:15 SW 7 10.00 Fair CLR 57.2 32 39% 29.7 0.0
03 07:55 SW 5 10.00 Fair CLR 57.2 32 39% 29.69 0.0
03 07:35 SW 7 10.00 Fair CLR 55.4 32 41% 29.69 0.0
03 07:15 SW 3 10.00 Fair CLR 55.4 33.8 44% 29.68 0.0
03 06:55 S 3 10.00 Fair CLR 53.6 33.8 47% 29.68 0.0
03 06:35 S 3 10.00 Fair CLR 53.6 32 44% 29.68 0.0
03 06:15 S 3 10.00 Fair CLR 53.6 32 44% 29.68 0.0
03 05:55 S 6 10.00 Fair CLR 53.6 32 44% 29.68 0.0
03 05:35 S 7 10.00 Fair CLR 55.4 30.2 38% 29.69 0.0
03 05:15 SW 6 10.00 Fair CLR 55.4 30.2 38% 29.69 0.0
03 04:55 S 9 G 17 10.00 Fair CLR 57.2 30.2 36% 29.69 0.0
03 04:35 SW 14 G 25 10.00 Partly Cloudy SCT100 57.2 28.4 33% 29.69 0.0
03 04:15 SW 14 G 24 10.00 Partly Cloudy SCT100 59 28.4 31% 29.69 0.0
03 03:55 SW 12 10.00 Partly Cloudy SCT100 59 28.4 31% 29.69 0.0
03 03:35 SW 8 10.00 Partly Cloudy SCT100 55.4 33.8 44% 29.7 0.0
03 03:15 SW 8 10.00 Partly Cloudy SCT100 55.4 33.8 44% 29.72 0.0
03 02:55 SW 7 10.00 Partly Cloudy SCT050 SCT070 SCT110 55.4 33.8 44% 29.72 0.0
03 02:35 SW 10 10.00 Light Rain SCT050 SCT070 BKN080 55.4 33.8 44% 29.74 0.0
03 02:15 SW 6 10.00 Partly Cloudy SCT080 57.2 30.2 36% 29.76 0.0
03 01:55 SW 7 10.00 Partly Cloudy SCT080 55.4 30.2 38% 29.76 0.0
03 01:35 S 9 10.00 Partly Cloudy SCT080 SCT110 57.2 32 39% 29.76 0.0
03 01:15 S 6 10.00 Partly Cloudy SCT090 SCT110 57.2 33.8 41% 29.77 0.0
03 00:55 S 5 10.00 Overcast OVC110 57.2 33.8 41% 29.78 0.0
03 00:35 S 5 10.00 Mostly Cloudy BKN110 57.2 33.8 41% 29.78 0.0
03 00:15 Calm 10.00 Mostly Cloudy BKN110 57.2 33.8 41% 29.79 0.0
02 23:55 Calm 10.00 Overcast OVC100 55.4 35.6 47% 29.79 0.0
02 23:35 SW 3 10.00 Overcast OVC110 59 33.8 39% 29.8 0.0
Date Time (cdt) Wind (mph) Vis. (mi.) Weather Sky Cond. Air Dwpt Max. Min. Relative Humidity Wind Chill (°F) Heat Index (°F) altimeter (in) sea level (mb) 1 hr 3 hr 6 hr
6 hour
Temperature (ºF) Pressure Precipitation (in)